createdAt,value
2017-12-20T00:01:25.022Z,2.70
2017-12-20T00:03:58.794Z,2.60
2017-12-20T00:17:31.435Z,2.70
2017-12-20T00:20:04.945Z,2.60
2017-12-20T00:25:22.086Z,2.60
2017-12-20T00:27:54.105Z,2.60
2017-12-20T00:30:28.662Z,2.60
2017-12-20T00:39:09.055Z,2.60
2017-12-20T00:41:44.158Z,2.60
2017-12-20T18:06:29.657Z,2.50
2017-12-20T18:11:42.168Z,3.70
2017-12-20T18:14:22.302Z,3.80
2017-12-20T18:16:50.939Z,3.90
2017-12-20T18:19:38.249Z,3.90
2017-12-20T18:22:07.757Z,3.90
2017-12-20T18:24:43.828Z,4.00
2017-12-20T18:27:14.412Z,4.10
2017-12-20T18:29:56.062Z,4.10
2017-12-20T18:32:25.776Z,4.20
2017-12-20T18:37:44.777Z,4.30
2017-12-20T18:43:08.110Z,4.30
2017-12-20T18:45:43.469Z,4.20
2017-12-20T18:48:24.511Z,4.20
2017-12-20T18:50:58.131Z,4.20
2017-12-20T18:53:26.614Z,4.20
2017-12-20T18:56:01.348Z,4.20
2017-12-20T18:58:29.805Z,4.30
2017-12-20T19:00:58.266Z,4.20
2017-12-20T19:03:42.898Z,4.30
2017-12-20T19:06:23.603Z,4.40
2017-12-20T19:08:53.435Z,4.40
2017-12-20T19:11:28.553Z,4.30
2017-12-20T19:14:02.440Z,4.30
2017-12-20T19:16:36.616Z,4.30
2017-12-20T19:19:13.166Z,4.40
2017-12-20T19:21:52.203Z,4.30
2017-12-20T19:24:26.687Z,4.30
2017-12-20T19:26:55.376Z,4.30
2017-12-20T19:29:26.964Z,4.30
2017-12-20T19:31:56.273Z,4.30
2017-12-20T19:34:38.498Z,4.30
2017-12-20T19:40:54.177Z,4.40
2017-12-20T19:46:32.293Z,4.30
2017-12-20T19:49:11.007Z,4.30
2017-12-20T19:51:47.136Z,4.20
2017-12-20T19:54:21.197Z,4.30
2017-12-20T19:56:52.630Z,4.30
2017-12-20T19:59:22.898Z,4.30
2017-12-20T20:01:58.564Z,4.30
2017-12-20T20:04:31.531Z,4.30
2017-12-20T20:07:02.971Z,4.20
2017-12-20T20:12:13.115Z,4.10
2017-12-20T20:14:43.976Z,4.10
2017-12-20T20:17:20.289Z,4.10
2017-12-20T20:19:53.229Z,4.10
2017-12-20T20:22:36.285Z,4.10
2017-12-20T20:27:53.097Z,4.10
2017-12-20T20:30:40.128Z,4.10
2017-12-20T20:33:18.323Z,4.20
2017-12-20T20:35:48.337Z,4.10
2017-12-20T20:38:21.441Z,4.10
2017-12-20T20:40:56.677Z,4.10
2017-12-20T20:43:31.632Z,4.10
2017-12-20T20:46:06.704Z,4.00
2017-12-20T20:48:35.211Z,4.00
2017-12-20T20:54:00.252Z,4.00
2017-12-20T20:56:29.352Z,3.90
2017-12-20T20:59:05.439Z,4.00
2017-12-20T21:01:40.447Z,4.00
2017-12-20T21:04:10.561Z,4.00
2017-12-20T21:06:49.362Z,4.10
2017-12-20T21:09:36.223Z,4.20
2017-12-20T21:12:29.405Z,4.10
2017-12-20T21:15:01.315Z,4.10
2017-12-20T21:17:55.525Z,4.20
2017-12-20T21:20:25.279Z,4.20
2017-12-20T21:22:57.306Z,4.20
2017-12-20T21:25:35.690Z,4.30
2017-12-20T21:28:36.870Z,4.10
2017-12-20T21:31:07.744Z,4.10
2017-12-20T21:33:43.206Z,4.10
2017-12-20T21:36:12.482Z,4.10
2017-12-20T21:41:53.475Z,4.10
2017-12-20T21:44:50.405Z,4.10
2017-12-20T23:33:08.545Z,4.10
2017-12-20T23:35:38.787Z,4.00
2017-12-20T23:38:10.114Z,3.90
2017-12-20T23:40:38.682Z,4.00
2017-12-20T23:43:07.265Z,4.10
2017-12-20T23:45:35.622Z,4.00
2017-12-20T23:48:04.004Z,4.00
2017-12-20T23:50:31.543Z,4.00
2017-12-20T23:53:24.492Z,4.10
2017-12-20T23:56:01.375Z,4.00
2017-12-20T23:58:31.670Z,4.10
